Time;durP1;ratioP1;P1;durP2;ratioP2;P2;SDS_P1;SDS_P2;PMS_P1;PMS_P2;Temp;Humidity;BMP_temperature;BMP_pressure;BME280_temperature;BME280_humidity;BME280_pressure;Samples;Min_cycle;Max_cycle;Signal;HPM_P1;HPM_P2
2024/02/08 00:01:42;;;;;;;;;;;8.20;99.90;;;8.33;100.00;96395.59;5017356;28;2215;-68
2024/02/08 00:04:09;;;;;;;;;;;8.20;99.90;;;8.25;100.00;96386.56;5019062;28;1272;-68
2024/02/08 00:06:36;;;;;;;;;;;8.30;99.90;;;8.25;100.00;96413.22;5018927;28;1385;-68
2024/02/08 00:09:03;;;;;;;;;;;8.20;99.90;;;8.27;100.00;96400.22;5017775;28;1389;-68
2024/02/08 00:11:31;;;;;;;;;;;8.30;99.90;;;8.33;100.00;96412.84;5019323;28;1641;-67
2024/02/08 00:13:58;;;;;;;;;;;8.30;99.90;;;8.31;100.00;96396.59;5021495;28;1950;-68
2024/02/08 00:16:27;;;;;;;;;;;8.30;99.90;;;8.33;100.00;96399.94;5027307;28;3178;-68
2024/02/08 00:18:57;;;;;;;;;;;8.30;99.90;;;8.37;100.00;96411.78;5024457;28;1445;-68
2024/02/08 00:21:24;;;;;;;;;;;8.30;99.90;;;8.38;100.00;96400.50;5026656;28;1474;-68
2024/02/08 00:23:52;;;;;;;;;;;8.30;99.90;;;8.44;100.00;96409.72;5024771;28;1367;-67
2024/02/08 00:26:20;;;;;;;;;;;8.30;99.90;;;8.44;100.00;96412.28;5030248;28;1121;-68
2024/02/08 00:28:47;;;;;;;;;;;8.40;99.90;;;8.45;100.00;96403.63;5028666;28;1199;-68
2024/02/08 00:31:14;;;;;;;;;;;8.40;99.90;;;8.45;100.00;96399.31;5026907;28;2292;-67
2024/02/08 00:33:40;;;;;;;;;;;8.30;99.90;;;8.32;100.00;96395.66;5028536;28;1902;-69
2024/02/08 00:36:11;;;;;;;;;;;8.30;99.90;;;8.46;100.00;96372.53;5030654;28;1599;-68
2024/02/08 00:38:37;;;;;;;;;;;8.40;99.90;;;8.44;100.00;96384.72;5026487;28;1376;-67
2024/02/08 00:41:05;;;;;;;;;;;8.40;99.90;;;8.49;100.00;96387.06;5029723;28;1266;-68
2024/02/08 00:43:32;;;;;;;;;;;8.40;99.90;;;8.52;100.00;96374.78;5023072;28;2603;-67
2024/02/08 00:46:02;;;;;;;;;;;8.40;99.90;;;8.50;100.00;96373.19;5029389;28;2664;-67
2024/02/08 00:48:29;;;;;;;;;;;8.40;99.90;;;8.50;100.00;96361.09;5031794;28;1335;-67
2024/02/08 00:50:56;;;;;;;;;;;8.40;99.90;;;8.47;100.00;96389.72;5028968;28;1392;-67
2024/02/08 00:53:23;;;;;;;;;;;8.40;99.90;;;8.54;100.00;96369.53;5027284;28;2606;-67
2024/02/08 00:55:50;;;;;;;;;;;8.50;99.90;;;8.46;100.00;96371.69;5028067;28;3951;-70
2024/02/08 00:58:17;;;;;;;;;;;8.50;99.90;;;8.46;100.00;96357.03;5027402;28;1282;-67
2024/02/08 01:00:44;;;;;;;;;;;8.50;99.90;;;8.56;100.00;96367.69;5025448;28;1230;-68
2024/02/08 01:03:13;;;;;;;;;;;8.50;99.90;;;8.53;100.00;96360.94;5024380;28;1258;-68
2024/02/08 01:05:41;;;;;;;;;;;8.50;99.90;;;8.63;100.00;96363.84;5023173;28;1374;-67
2024/02/08 01:08:08;;;;;;;;;;;8.50;99.90;;;8.52;100.00;96350.66;5025100;28;1431;-67
2024/02/08 01:10:35;;;;;;;;;;;8.50;99.90;;;8.58;100.00;96355.53;5020652;28;1663;-68
2024/02/08 01:13:03;;;;;;;;;;;8.50;99.90;;;8.59;100.00;96349.41;5020859;28;1914;-67
2024/02/08 01:15:29;;;;;;;;;;;8.50;99.90;;;8.62;100.00;96346.69;5023002;28;1446;-67
2024/02/08 01:17:56;;;;;;;;;;;8.50;99.90;;;8.75;100.00;96362.34;5021885;28;1285;-67
2024/02/08 01:20:27;;;;;;;;;;;8.50;99.90;;;8.59;100.00;96344.25;5023337;28;1340;-67
2024/02/08 01:22:55;;;;;;;;;;;8.50;99.90;;;8.63;100.00;96350.94;5027110;28;1480;-68
2024/02/08 01:25:22;;;;;;;;;;;8.50;99.90;;;8.61;100.00;96339.81;5027157;28;1331;-67
2024/02/08 01:27:49;;;;;;;;;;;8.50;99.90;;;8.75;100.00;96358.00;5026582;28;1344;-67
2024/02/08 01:30:16;;;;;;;;;;;8.50;99.90;;;8.69;100.00;96342.84;5026848;28;1337;-67
2024/02/08 01:32:43;;;;;;;;;;;8.50;99.90;;;8.72;100.00;96352.19;5026234;28;1926;-67
2024/02/08 01:35:21;;;;;;;;;;;8.50;99.90;;;8.67;100.00;96347.25;5023824;28;1389;-66
2024/02/08 01:37:49;;;;;;;;;;;8.60;99.90;;;8.66;100.00;96361.09;5024089;28;1528;-67
2024/02/08 01:40:18;;;;;;;;;;;8.60;99.90;;;8.58;100.00;96342.59;5024613;28;3653;-67
2024/02/08 01:42:48;;;;;;;;;;;8.60;99.90;;;8.68;100.00;96348.91;5018606;28;1416;-67
2024/02/08 01:45:33;;;;;;;;;;;8.60;99.90;;;8.67;100.00;96349.84;5018547;28;1627;-68
2024/02/08 01:48:03;;;;;;;;;;;8.50;99.90;;;8.71;100.00;96353.09;5022403;28;1359;-68
2024/02/08 01:50:35;;;;;;;;;;;8.50;99.90;;;8.58;100.00;96350.34;5021304;28;1347;-68
2024/02/08 01:53:05;;;;;;;;;;;8.50;99.90;;;8.79;100.00;96353.50;5023033;28;2039;-67
2024/02/08 01:55:35;;;;;;;;;;;8.60;99.90;;;8.61;100.00;96341.59;5018770;28;2604;-68
2024/02/08 01:58:07;;;;;;;;;;;8.60;99.90;;;8.60;100.00;96364.03;5006025;28;1341;-68
2024/02/08 02:00:37;;;;;;;;;;;8.60;99.90;;;8.67;100.00;96355.03;5021445;28;1325;-67
2024/02/08 02:03:05;;;;;;;;;;;8.60;99.90;;;8.65;100.00;96351.69;5020744;28;1293;-67
2024/02/08 02:05:32;;;;;;;;;;;8.60;99.90;;;8.41;100.00;96343.47;5017286;28;1609;-67
2024/02/08 02:07:59;;;;;;;;;;;8.60;99.90;;;8.15;100.00;96355.19;5019388;28;1904;-67
2024/02/08 02:10:29;;;;;;;;;;;8.60;99.90;;;8.18;100.00;96357.59;5014273;28;1411;-67
2024/02/08 02:12:59;;;;;;;;;;;8.60;99.90;;;8.20;100.00;96360.13;5018629;28;1979;-67
2024/02/08 02:15:31;;;;;;;;;;;8.60;99.90;;;8.14;100.00;96348.34;5002953;28;1401;-68
2024/02/08 02:18:03;;;;;;;;;;;8.60;99.90;;;8.15;100.00;96368.09;5018103;28;1429;-68
2024/02/08 02:20:30;;;;;;;;;;;8.60;99.90;;;8.11;100.00;96335.59;5006403;28;1769;-68
2024/02/08 02:22:59;;;;;;;;;;;8.60;99.90;;;8.18;100.00;96334.34;5019709;28;3190;-67
2024/02/08 02:25:27;;;;;;;;;;;8.60;99.90;;;8.21;100.00;96339.38;5019060;28;1288;-68
2024/02/08 02:27:58;;;;;;;;;;;8.60;99.90;;;8.21;100.00;96336.78;5018614;28;1417;-68
2024/02/08 02:30:26;;;;;;;;;;;8.60;99.90;;;8.32;100.00;96343.94;5017777;28;1377;-68
2024/02/08 02:32:55;;;;;;;;;;;8.70;99.90;;;8.35;100.00;96334.28;5014719;28;1906;-68
2024/02/08 02:35:23;;;;;;;;;;;8.70;99.90;;;8.75;100.00;96333.91;5017575;28;1464;-69
2024/02/08 02:37:51;;;;;;;;;;;8.70;99.90;;;8.47;100.00;96332.00;5018235;28;1968;-68
2024/02/08 02:40:24;;;;;;;;;;;8.70;99.90;;;8.40;100.00;96323.72;5018173;28;1372;-68
2024/02/08 02:42:52;;;;;;;;;;;8.70;99.90;;;8.43;100.00;96315.78;5018728;28;1336;-68
2024/02/08 02:45:23;;;;;;;;;;;8.70;99.90;;;8.52;100.00;96317.06;5021559;28;1402;-68
2024/02/08 02:47:53;;;;;;;;;;;8.70;99.90;;;8.48;100.00;96300.84;5018079;28;1344;-67
2024/02/08 02:50:21;;;;;;;;;;;8.70;99.90;;;8.38;100.00;96326.34;5020263;28;2081;-68
2024/02/08 02:52:49;;;;;;;;;;;8.70;99.90;;;8.36;100.00;96311.84;5018514;28;2772;-68
2024/02/08 02:55:17;;;;;;;;;;;8.70;99.90;;;8.36;100.00;96317.00;5018867;28;1300;-68
2024/02/08 02:57:45;;;;;;;;;;;8.70;99.90;;;8.44;100.00;96311.44;5018017;28;1071;-67
2024/02/08 03:00:21;;;;;;;;;;;;;;;8.46;100.00;96327.72;5018817;28;1385;-67
2024/02/08 03:02:49;;;;;;;;;;;8.70;99.90;;;8.37;100.00;96308.34;5023168;28;1109;-68
2024/02/08 03:05:22;;;;;;;;;;;8.70;99.90;;;8.29;100.00;96310.50;5018251;28;1477;-68
2024/02/08 03:07:50;;;;;;;;;;;8.70;99.90;;;8.49;100.00;96306.88;5018804;28;3133;-68
2024/02/08 03:10:21;;;;;;;;;;;8.70;99.90;;;8.42;100.00;96301.22;5020136;28;1058;-68
2024/02/08 03:12:49;;;;;;;;;;;8.70;99.90;;;8.37;100.00;96300.59;5014427;28;2008;-68
2024/02/08 03:15:17;;;;;;;;;;;8.70;99.90;;;8.47;100.00;96306.97;5017901;28;1359;-68
2024/02/08 03:17:45;;;;;;;;;;;8.70;99.90;;;8.33;100.00;96302.50;5018627;28;1425;-68
2024/02/08 03:20:29;;;;;;;;;;;8.70;99.90;;;8.35;100.00;96295.50;5019672;28;1362;-67
2024/02/08 03:22:57;;;;;;;;;;;8.70;99.90;;;8.44;100.00;96293.34;5019332;28;1157;-68
2024/02/08 03:25:24;;;;;;;;;;;8.70;99.90;;;8.48;100.00;96287.09;5020008;28;1225;-68
2024/02/08 03:27:52;;;;;;;;;;;8.80;99.90;;;8.52;100.00;96298.94;5018218;28;1092;-67
2024/02/08 03:30:22;;;;;;;;;;;8.80;99.90;;;8.56;100.00;96280.59;5017420;28;1089;-68
2024/02/08 03:32:50;;;;;;;;;;;8.80;99.90;;;8.38;100.00;96286.75;5018041;28;1910;-67
2024/02/08 03:35:19;;;;;;;;;;;8.80;99.90;;;8.35;100.00;96274.00;5020884;28;2035;-68
2024/02/08 03:37:48;;;;;;;;;;;8.80;99.90;;;8.30;100.00;96273.38;5019182;28;1231;-68
2024/02/08 03:40:20;;;;;;;;;;;8.80;99.90;;;8.35;100.00;96279.16;5018713;28;1201;-68
2024/02/08 03:42:48;;;;;;;;;;;8.80;99.90;;;8.44;100.00;96270.94;5015283;28;1117;-67
2024/02/08 03:45:23;;;;;;;;;;;8.80;99.90;;;8.54;100.00;96277.25;5019182;28;1316;-67
2024/02/08 03:47:50;;;;;;;;;;;8.80;99.90;;;8.41;100.00;96252.97;5016770;28;1391;-68
2024/02/08 03:50:24;;;;;;;;;;;8.80;99.90;;;8.45;100.00;96274.34;5019233;28;3141;-67
2024/02/08 03:52:51;;;;;;;;;;;8.70;99.90;;;8.44;100.00;96263.19;5018055;28;2630;-68
2024/02/08 03:55:26;;;;;;;;;;;8.70;99.90;;;8.61;100.00;96272.56;5020105;28;2805;-68
2024/02/08 03:57:56;;;;;;;;;;;8.80;99.90;;;8.58;100.00;96268.41;5015251;28;1149;-68
2024/02/08 04:00:28;;;;;;;;;;;8.80;99.90;;;-146.41;100.00;57768.22;5018609;28;1380;-68
2024/02/08 04:03:01;;;;;;;;;;;8.80;99.90;;;-146.41;100.00;57768.22;5020680;28;1126;-68
2024/02/08 04:05:37;;;;;;;;;;;8.80;99.90;;;-146.41;100.00;57768.22;5018277;28;2023;-68
2024/02/08 04:08:22;;;;;;;;;;;8.80;99.90;;;-146.41;100.00;57768.22;5021918;28;1090;-68
2024/02/08 04:54:59;;;;;;;;;;;8.80;99.90;;;-146.41;100.00;57768.22;5024202;28;2632;-68
2024/02/08 04:57:26;;;;;;;;;;;8.80;99.90;;;-146.41;100.00;57768.22;5020342;28;2557;-68
2024/02/08 04:59:53;;;;;;;;;;;8.90;99.90;;;-146.41;100.00;57768.22;5020100;28;1217;-67
2024/02/08 05:02:21;;;;;;;;;;;8.80;99.90;;;-146.41;100.00;57768.22;5021892;28;1029;-68
2024/02/08 05:04:48;;;;;;;;;;;8.80;99.90;;;-146.41;100.00;57768.22;5020558;28;1474;-68
2024/02/08 05:07:16;;;;;;;;;;;8.80;99.90;;;-146.41;100.00;57768.22;5021780;28;1381;-68
2024/02/08 05:09:43;;;;;;;;;;;8.90;99.90;;;-146.41;100.00;57768.22;5019698;28;2432;-68
2024/02/08 05:12:10;;;;;;;;;;;8.80;99.90;;;-146.41;100.00;57768.22;5018359;28;1304;-68
2024/02/08 05:14:38;;;;;;;;;;;8.80;99.90;;;-146.41;100.00;57768.22;5020530;28;1987;-68
2024/02/08 05:17:08;;;;;;;;;;;8.80;99.90;;;-146.41;100.00;57768.22;5022276;28;1185;-68
2024/02/08 05:19:39;;;;;;;;;;;8.80;99.90;;;-146.41;100.00;57768.22;5019820;28;1169;-68
2024/02/08 05:22:11;;;;;;;;;;;8.80;99.90;;;-146.41;100.00;57768.22;5019641;28;1372;-68
2024/02/08 05:24:38;;;;;;;;;;;8.80;99.90;;;-146.41;100.00;57768.22;5019943;28;3180;-68
2024/02/08 05:27:04;;;;;;;;;;;8.80;99.90;;;-146.41;100.00;57768.22;5021025;28;1054;-68
2024/02/08 05:29:32;;;;;;;;;;;8.90;99.90;;;-146.41;100.00;57768.22;5021371;28;1099;-67
2024/02/08 05:31:59;;;;;;;;;;;8.80;99.90;;;-146.41;100.00;57768.22;5020210;28;1106;-68
2024/02/08 05:34:25;;;;;;;;;;;8.90;99.90;;;-146.41;100.00;57768.22;5017706;28;1985;-67
2024/02/08 05:36:55;;;;;;;;;;;8.80;99.90;;;-146.41;100.00;57768.22;5018417;28;1378;-68
2024/02/08 05:39:27;;;;;;;;;;;8.80;99.90;;;-146.41;100.00;57768.22;5019236;28;2139;-67
2024/02/08 05:41:55;;;;;;;;;;;8.90;99.90;;;-146.41;100.00;57768.22;5018883;28;998;-67
2024/02/08 05:44:29;;;;;;;;;;;8.80;99.90;;;-146.41;100.00;57768.22;5018660;28;1371;-67
2024/02/08 05:47:07;;;;;;;;;;;8.80;99.90;;;-146.41;100.00;57768.22;5020615;28;1216;-68
2024/02/08 05:49:48;;;;;;;;;;;8.90;99.90;;;-146.41;100.00;57768.22;5019158;28;1117;-69
2024/02/08 05:52:16;;;;;;;;;;;8.80;99.90;;;-146.41;100.00;57768.22;5022223;28;2507;-68
2024/02/08 05:54:45;;;;;;;;;;;8.80;99.90;;;-146.41;100.00;57768.22;5020637;28;2703;-68
2024/02/08 05:57:13;;;;;;;;;;;8.80;99.90;;;-146.41;100.00;57768.22;5018880;28;1354;-68
2024/02/08 05:59:44;;;;;;;;;;;8.80;99.90;;;-146.41;100.00;57768.22;5019458;28;1042;-67
2024/02/08 06:02:22;;;;;;;;;;;8.80;99.90;;;-146.41;100.00;57768.22;5017361;28;1288;-67
2024/02/08 06:04:59;;;;;;;;;;;8.80;99.90;;;-146.41;100.00;57768.22;5014317;28;1308;-68
2024/02/08 06:07:30;;;;;;;;;;;8.80;99.90;;;-146.41;100.00;57768.22;5020150;28;1437;-68
2024/02/08 06:10:13;;;;;;;;;;;8.80;99.90;;;-146.41;100.00;57768.22;5016044;28;3128;-68
2024/02/08 06:12:57;;;;;;;;;;;8.80;99.90;;;-146.41;100.00;57768.22;5018577;28;1264;-68
2024/02/08 06:15:25;;;;;;;;;;;8.80;99.90;;;-146.41;100.00;57768.22;5018078;28;1938;-67
2024/02/08 06:18:05;;;;;;;;;;;8.80;99.90;;;-146.41;100.00;57768.22;5016359;28;1142;-67
2024/02/08 06:20:43;;;;;;;;;;;8.80;99.90;;;-146.41;100.00;57768.22;5018002;28;1404;-68
2024/02/08 06:23:17;;;;;;;;;;;8.80;99.90;;;-146.41;100.00;57768.22;5020398;28;2207;-68
2024/02/08 06:28:46;;;;;;;;;;;8.80;99.90;;;-146.41;100.00;57768.22;5018246;28;1138;-67
2024/02/08 06:31:17;;;;;;;;;;;8.90;99.90;;;-146.41;100.00;57768.22;5019375;28;1106;-68
2024/02/08 06:36:34;;;;;;;;;;;8.80;99.90;;;-146.41;100.00;57768.22;5021024;28;1417;-68
2024/02/08 06:39:23;;;;;;;;;;;8.80;99.90;;;-146.41;100.00;57768.22;5017641;28;1944;-67
2024/02/08 06:41:52;;;;;;;;;;;8.80;99.90;;;-146.41;100.00;57768.22;5018149;28;1915;-67
2024/02/08 07:39:46;;;;;;;;;;;8.80;99.90;;;-146.41;100.00;57768.22;5016331;28;1126;-68
2024/02/08 07:42:20;;;;;;;;;;;8.80;99.90;;;-146.41;100.00;57768.22;5015600;28;1093;-68
2024/02/08 07:44:54;;;;;;;;;;;8.80;99.90;;;-146.41;100.00;57768.22;5022119;28;1312;-67
2024/02/08 07:47:24;;;;;;;;;;;8.90;99.90;;;-146.41;100.00;57768.22;5023611;28;2004;-67
2024/02/08 07:49:57;;;;;;;;;;;8.90;99.90;;;-146.41;100.00;57768.22;5020841;28;1213;-68
2024/02/08 07:52:25;;;;;;;;;;;8.80;99.90;;;-146.41;100.00;57768.22;5019226;28;2576;-68
2024/02/08 07:57:37;;;;;;;;;;;8.90;99.90;;;-146.41;100.00;57768.22;5020678;28;1161;-68
2024/02/08 08:00:08;;;;;;;;;;;8.90;99.90;;;-146.41;100.00;57768.22;5020773;28;1157;-67
2024/02/08 08:02:35;;;;;;;;;;;8.90;99.90;;;-146.41;100.00;57768.22;5021301;28;1213;-68
2024/02/08 08:05:03;;;;;;;;;;;8.90;99.90;;;-146.41;100.00;57768.22;5018147;28;1936;-67
2024/02/08 08:07:34;;;;;;;;;;;8.90;99.90;;;-146.41;100.00;57768.22;5024956;28;1046;-68
2024/02/08 08:10:08;;;;;;;;;;;8.90;99.90;;;-146.41;100.00;57768.22;5023057;28;1231;-67
2024/02/08 08:12:36;;;;;;;;;;;8.90;99.90;;;-146.41;100.00;57768.22;5024648;28;1228;-67
2024/02/08 08:15:13;;;;;;;;;;;8.90;99.90;;;-146.41;100.00;57768.22;5008004;28;1903;-68
2024/02/08 08:17:40;;;;;;;;;;;8.90;99.90;;;-146.41;100.00;57768.22;5022517;28;1345;-68
2024/02/08 08:23:02;;;;;;;;;;;8.80;99.90;;;-146.41;100.00;57768.22;5019140;28;1354;-68
2024/02/08 08:25:59;;;;;;;;;;;8.90;99.90;;;-146.41;100.00;57768.22;5018901;28;1379;-68
2024/02/08 08:28:39;;;;;;;;;;;8.90;99.90;;;-146.41;100.00;57768.22;5021551;28;1154;-68
2024/02/08 08:34:04;;;;;;;;;;;8.90;99.90;;;-146.41;100.00;57768.22;5021205;28;2592;-68
2024/02/08 08:36:34;;;;;;;;;;;8.90;99.90;;;-146.41;100.00;57768.22;5023031;28;1987;-67
2024/02/08 08:41:48;;;;;;;;;;;8.90;99.90;;;-146.41;100.00;57768.22;5019716;28;1181;-67
2024/02/08 08:44:15;;;;;;;;;;;9.00;99.90;;;-146.41;100.00;57768.22;5017778;28;1309;-67
2024/02/08 08:46:44;;;;;;;;;;;9.00;99.90;;;-146.41;100.00;57768.22;5020732;28;2542;-67
2024/02/08 08:49:14;;;;;;;;;;;9.00;99.90;;;-146.41;100.00;57768.22;5021112;28;1512;-67
2024/02/08 08:51:43;;;;;;;;;;;9.00;99.90;;;-146.41;100.00;57768.22;5018784;28;1255;-68
2024/02/08 08:54:19;;;;;;;;;;;9.00;99.90;;;-146.41;100.00;57768.22;5019537;28;2676;-67
2024/02/08 08:56:49;;;;;;;;;;;9.00;99.90;;;-146.41;100.00;57768.22;5017602;28;2299;-67
2024/02/08 08:59:19;;;;;;;;;;;9.00;99.90;;;-146.41;100.00;57768.22;5019085;28;1177;-68
2024/02/08 09:01:48;;;;;;;;;;;9.00;99.90;;;-146.41;100.00;57768.22;5020160;28;1080;-67
2024/02/08 09:04:32;;;;;;;;;;;9.10;99.90;;;-146.41;100.00;57768.22;5017865;28;1541;-67
2024/02/08 09:07:10;;;;;;;;;;;9.10;99.90;;;-146.41;100.00;57768.22;5018919;28;1673;-67
2024/02/08 09:09:54;;;;;;;;;;;9.10;99.90;;;-146.41;100.00;57768.22;5020141;28;3096;-68
2024/02/08 09:12:28;;;;;;;;;;;9.10;99.90;;;-146.41;100.00;57768.22;5016707;28;2601;-69
2024/02/08 09:14:59;;;;;;;;;;;9.20;99.90;;;-146.41;100.00;57768.22;5021299;28;2655;-68
2024/02/08 09:17:43;;;;;;;;;;;9.20;99.90;;;-146.41;100.00;57768.22;5016880;28;1389;-67
2024/02/08 09:20:19;;;;;;;;;;;9.10;99.90;;;-146.41;100.00;57768.22;5019731;28;1478;-68
2024/02/08 09:22:52;;;;;;;;;;;9.10;99.90;;;-146.41;100.00;57768.22;5017922;28;1306;-68
2024/02/08 09:25:20;;;;;;;;;;;9.20;99.90;;;-146.41;100.00;57768.22;5017783;28;1368;-67
2024/02/08 09:28:23;;;;;;;;;;;9.20;99.90;;;-146.41;100.00;57768.22;5016427;28;2536;-67
2024/02/08 09:30:57;;;;;;;;;;;9.20;99.90;;;-146.41;100.00;57768.22;5019001;28;1351;-68
2024/02/08 09:33:35;;;;;;;;;;;9.20;99.90;;;-146.41;100.00;57768.22;5020311;28;1235;-68
2024/02/08 09:36:03;;;;;;;;;;;9.20;99.90;;;-146.41;100.00;57768.22;5016637;28;2569;-68
2024/02/08 09:38:42;;;;;;;;;;;9.20;99.90;;;-146.41;100.00;57768.22;5020220;28;1137;-67
2024/02/08 09:41:24;;;;;;;;;;;9.20;99.90;;;-146.41;100.00;57768.22;5020276;28;1154;-68
2024/02/08 09:44:05;;;;;;;;;;;9.20;99.90;;;-146.41;100.00;57768.22;5016215;28;1320;-67
2024/02/08 09:49:16;;;;;;;;;;;9.20;99.90;;;-146.41;100.00;57768.22;5024706;28;1412;-68
2024/02/08 09:51:55;;;;;;;;;;;9.20;99.90;;;-146.41;100.00;57768.22;5018988;28;2440;-67
2024/02/08 09:54:31;;;;;;;;;;;9.20;99.90;;;-146.41;100.00;57768.22;5015680;28;2652;-67
2024/02/08 09:57:21;;;;;;;;;;;9.20;99.90;;;-146.41;100.00;57768.22;5018701;28;1111;-68
2024/02/08 09:59:59;;;;;;;;;;;9.30;99.90;;;-146.41;100.00;57768.22;5018012;28;1163;-69
2024/02/08 10:02:33;;;;;;;;;;;9.30;99.90;;;-146.41;100.00;57768.22;5017398;28;1403;-67
2024/02/08 10:08:09;;;;;;;;;;;9.30;99.90;;;-146.41;100.00;57768.22;4980467;28;1975;-68
2024/02/08 10:10:44;;;;;;;;;;;9.30;99.90;;;-146.41;100.00;57768.22;5018814;28;1403;-68
2024/02/08 10:13:30;;;;;;;;;;;9.30;99.90;;;-146.41;100.00;57768.22;5017946;28;1247;-68
2024/02/08 10:16:03;;;;;;;;;;;9.30;99.90;;;-146.41;100.00;57768.22;5017839;28;1990;-68
2024/02/08 10:18:37;;;;;;;;;;;9.40;99.90;;;-146.41;100.00;57768.22;5016846;28;1438;-66
2024/02/08 10:21:12;;;;;;;;;;;9.40;99.90;;;-146.41;100.00;57768.22;5016832;28;2103;-67
2024/02/08 10:23:59;;;;;;;;;;;9.50;99.90;;;-146.41;100.00;57768.22;5015784;28;1209;-68
2024/02/08 10:26:38;;;;;;;;;;;9.40;99.90;;;-146.41;100.00;57768.22;5015787;28;1166;-68
2024/02/08 10:29:07;;;;;;;;;;;9.50;99.90;;;-146.41;100.00;57768.22;5020174;28;3857;-67
2024/02/08 10:31:37;;;;;;;;;;;9.50;99.90;;;-146.41;100.00;57768.22;5018873;28;2694;-66
2024/02/08 10:34:10;;;;;;;;;;;9.50;99.90;;;-146.41;100.00;57768.22;5018102;28;1339;-66
2024/02/08 10:36:44;;;;;;;;;;;9.50;99.90;;;-146.41;100.00;57768.22;5019987;28;1922;-68
2024/02/08 10:39:25;;;;;;;;;;;9.50;99.90;;;-146.41;100.00;57768.22;5016044;28;1181;-67
2024/02/08 10:44:27;;;;;;;;;;;9.60;99.90;;;-146.41;100.00;57768.22;5015086;28;2555;-68
2024/02/08 10:47:08;;;;;;;;;;;9.60;99.90;;;-146.41;100.00;57768.22;5016941;28;2577;-68
2024/02/08 10:49:42;;;;;;;;;;;9.60;99.90;;;-146.41;100.00;57768.22;5018612;28;1362;-69
2024/02/08 10:52:19;;;;;;;;;;;9.60;99.90;;;-146.41;100.00;57768.22;5017124;28;2707;-67
2024/02/08 10:54:51;;;;;;;;;;;9.70;99.90;;;-146.41;100.00;57768.22;5017791;28;1991;-67
2024/02/08 11:03:14;;;;;;;;;;;9.70;99.90;;;-146.41;100.00;57768.22;4984650;28;1405;-67
2024/02/08 11:06:00;;;;;;;;;;;9.70;99.90;;;-146.41;100.00;57768.22;5016585;28;2092;-68
2024/02/08 11:08:33;;;;;;;;;;;9.70;99.90;;;-146.41;100.00;57768.22;5013522;28;1957;-67
2024/02/08 11:11:09;;;;;;;;;;;9.70;99.90;;;-146.41;100.00;57768.22;5015955;28;1223;-67
2024/02/08 11:13:41;;;;;;;;;;;9.70;99.90;;;-146.41;100.00;57768.22;5004668;28;1338;-66
2024/02/08 11:16:19;;;;;;;;;;;9.70;99.90;;;-146.41;100.00;57768.22;5018287;28;1936;-68
2024/02/08 11:18:52;;;;;;;;;;;9.70;99.90;;;-146.41;100.00;57768.22;5004746;28;3157;-68
2024/02/08 11:21:42;;;;;;;;;;;9.70;99.90;;;-146.41;100.00;57768.22;5020400;28;1223;-67
2024/02/08 11:24:38;;;;;;;;;;;9.70;99.90;;;-146.41;100.00;57768.22;5021643;28;1424;-66
2024/02/08 11:27:05;;;;;;;;;;;9.70;99.90;;;-146.41;100.00;57768.22;5022082;28;1386;-68
2024/02/08 11:29:45;;;;;;;;;;;9.70;99.90;;;-146.41;100.00;57768.22;5022101;28;1435;-67
2024/02/08 11:32:18;;;;;;;;;;;9.70;99.90;;;-146.41;100.00;57768.22;5021404;28;1224;-68
2024/02/08 11:34:46;;;;;;;;;;;9.80;99.90;;;-146.41;100.00;57768.22;5023117;28;2241;-68
2024/02/08 11:37:17;;;;;;;;;;;9.70;99.90;;;-146.41;100.00;57768.22;5020027;28;1887;-68
2024/02/08 11:39:49;;;;;;;;;;;9.70;99.90;;;-146.41;100.00;57768.22;5021998;28;1290;-67
2024/02/08 11:42:22;;;;;;;;;;;9.70;99.90;;;-146.41;100.00;57768.22;5022156;28;1435;-67
2024/02/08 11:44:57;;;;;;;;;;;9.80;99.90;;;-146.41;100.00;57768.22;5020159;28;1363;-67
2024/02/08 11:47:24;;;;;;;;;;;9.80;99.90;;;-146.41;100.00;57768.22;5019180;28;1968;-66
2024/02/08 11:49:52;;;;;;;;;;;9.80;99.90;;;-146.41;100.00;57768.22;5021205;28;2618;-68
2024/02/08 11:52:23;;;;;;;;;;;9.80;99.90;;;-146.41;100.00;57768.22;5022292;28;1129;-68
2024/02/08 11:55:03;;;;;;;;;;;9.80;99.90;;;-146.41;100.00;57768.22;5019844;28;1324;-68
2024/02/08 11:57:36;;;;;;;;;;;9.80;99.90;;;-146.41;100.00;57768.22;5020254;28;1453;-68
2024/02/08 12:00:18;;;;;;;;;;;9.90;99.90;;;-146.41;100.00;57768.22;5003523;28;1058;-68
2024/02/08 12:02:58;;;;;;;;;;;9.90;99.90;;;-146.41;100.00;57768.22;5018423;28;1384;-68
2024/02/08 12:05:27;;;;;;;;;;;9.90;99.90;;;-146.41;100.00;57768.22;5022038;28;3301;-67
2024/02/08 12:08:08;;;;;;;;;;;9.90;99.90;;;-146.41;100.00;57768.22;5018796;28;1422;-67
2024/02/08 12:10:37;;;;;;;;;;;9.80;99.90;;;-146.41;100.00;57768.22;5020974;28;1093;-67
2024/02/08 12:13:05;;;;;;;;;;;9.90;99.90;;;-146.41;100.00;57768.22;5020803;28;1385;-68
2024/02/08 12:15:34;;;;;;;;;;;10.00;99.90;;;-146.41;100.00;57768.22;5020127;28;1899;-68
2024/02/08 12:18:05;;;;;;;;;;;;;;;-146.41;100.00;57768.22;5021475;28;2059;-67
2024/02/08 12:20:36;;;;;;;;;;;10.10;99.90;;;-146.41;100.00;57768.22;5020058;28;1062;-67
2024/02/08 12:23:04;;;;;;;;;;;10.10;99.90;;;-146.41;100.00;57768.22;5020919;28;1459;-67
2024/02/08 12:25:31;;;;;;;;;;;10.10;99.90;;;-146.41;100.00;57768.22;5021296;28;1611;-67
2024/02/08 12:28:02;;;;;;;;;;;10.20;99.90;;;-146.41;100.00;57768.22;5022414;28;1464;-68
2024/02/08 12:30:33;;;;;;;;;;;10.20;99.90;;;-146.41;100.00;57768.22;5021703;28;1029;-68
2024/02/08 12:33:07;;;;;;;;;;;10.20;99.90;;;-146.41;100.00;57768.22;5019035;28;2029;-67
2024/02/08 12:35:40;;;;;;;;;;;10.30;99.90;;;-146.41;100.00;57768.22;5021942;28;1903;-67
2024/02/08 12:38:08;;;;;;;;;;;10.30;99.90;;;-146.41;100.00;57768.22;5018472;28;1460;-67
2024/02/08 12:40:35;;;;;;;;;;;10.20;99.90;;;-146.41;100.00;57768.22;5022286;28;1105;-67
2024/02/08 12:43:07;;;;;;;;;;;10.20;99.90;;;-146.41;100.00;57768.22;5018541;28;1403;-67
2024/02/08 12:45:35;;;;;;;;;;;10.20;99.90;;;-146.41;100.00;57768.22;5019234;28;1402;-68
2024/02/08 12:48:07;;;;;;;;;;;10.20;99.90;;;-146.41;100.00;57768.22;5018746;28;3037;-67
2024/02/08 12:50:37;;;;;;;;;;;10.20;99.90;;;-146.41;100.00;57768.22;5019424;28;2540;-68
2024/02/08 12:53:06;;;;;;;;;;;10.20;99.90;;;-146.41;100.00;57768.22;5019570;28;2642;-67
2024/02/08 12:55:33;;;;;;;;;;;10.20;99.90;;;-146.41;100.00;57768.22;5020168;28;1937;-68
2024/02/08 12:58:02;;;;;;;;;;;10.20;99.90;;;-146.41;100.00;57768.22;5019338;28;1470;-68
2024/02/08 13:00:34;;;;;;;;;;;10.20;99.90;;;-146.41;100.00;57768.22;5018947;28;2492;-67
2024/02/08 13:03:09;;;;;;;;;;;10.30;99.90;;;-146.41;100.00;57768.22;5017446;28;1109;-67
2024/02/08 13:05:41;;;;;;;;;;;10.20;99.90;;;-146.41;100.00;57768.22;5019875;28;1280;-67
2024/02/08 13:08:08;;;;;;;;;;;10.30;99.90;;;-146.41;100.00;57768.22;5016499;28;1437;-68
2024/02/08 13:10:36;;;;;;;;;;;10.30;99.90;;;-146.41;100.00;57768.22;5020351;28;1150;-67
2024/02/08 13:13:10;;;;;;;;;;;10.30;99.90;;;-146.41;100.00;57768.22;5017410;28;1342;-67
2024/02/08 13:15:41;;;;;;;;;;;10.30;99.90;;;-146.41;100.00;57768.22;5017274;28;1926;-66
2024/02/08 13:18:11;;;;;;;;;;;10.20;99.90;;;-146.41;100.00;57768.22;5017713;28;2405;-67
2024/02/08 13:20:38;;;;;;;;;;;10.20;99.90;;;-146.41;100.00;57768.22;5020239;28;1161;-66
2024/02/08 13:23:10;;;;;;;;;;;10.30;99.90;;;-146.41;100.00;57768.22;5020624;28;1394;-65
2024/02/08 13:25:39;;;;;;;;;;;10.30;99.90;;;-146.41;100.00;57768.22;5020518;28;1292;-66
2024/02/08 13:28:09;;;;;;;;;;;10.30;99.90;;;-146.41;100.00;57768.22;5019273;28;1406;-67
2024/02/08 13:30:39;;;;;;;;;;;10.30;99.90;;;-146.41;100.00;57768.22;5019451;28;3279;-66
2024/02/08 13:33:10;;;;;;;;;;;10.40;99.90;;;-146.41;100.00;57768.22;5017534;28;1190;-66
2024/02/08 13:35:42;;;;;;;;;;;10.40;99.90;;;-146.41;100.00;57768.22;5018285;28;1902;-67
2024/02/08 13:38:12;;;;;;;;;;;10.40;99.90;;;-146.41;100.00;57768.22;5018564;28;1228;-66
2024/02/08 13:40:42;;;;;;;;;;;10.40;99.90;;;-146.41;100.00;57768.22;5017618;28;1354;-66
2024/02/08 13:43:11;;;;;;;;;;;10.40;99.90;;;-146.41;100.00;57768.22;5018168;28;1060;-67
2024/02/08 13:45:40;;;;;;;;;;;10.40;99.90;;;-146.41;100.00;57768.22;5018452;28;1704;-66
2024/02/08 13:48:15;;;;;;;;;;;10.40;99.90;;;-146.41;100.00;57768.22;5019070;28;2583;-66